Nerva, Spain
Current Conditions -  °F | °C
As of 4:30 AM on Saturday 29 Nov 2014 (Local Time) from LEZL Reporting Station
Clear Clear  
Wind Chill: 11°   Ceiling: Unl
Heat Index: 11°   Visibility: 6mi
Dew Point: 10°   Wind: 9mph
Humidity: 94%   Direction: 40°NE
Pressure: 29.23"   Gusts: NA
Location:  37.7°N, 6.55°W
Report Text: LEZL 290330Z 04008KT CAVOK 11/10 Q0990 NOSIG
Loading
Personal Weather Stations






























Interactive Weather Map New forecast layout! Learn more

10-Day Weather Forecast

Advertisements
Track Severe Weather on mobile